createdAt,value
2023-11-02T00:01:13.066Z,10.30
2023-11-02T00:03:45.691Z,10.40
2023-11-02T00:06:24.502Z,10.90
2023-11-02T00:09:10.552Z,10.60
2023-11-02T00:12:03.378Z,10.60
2023-11-02T00:14:44.821Z,10.50
2023-11-02T00:17:34.692Z,10.40
2023-11-02T00:20:10.006Z,10.50
2023-11-02T00:22:46.086Z,10.50
2023-11-02T00:25:57.678Z,10.40
2023-11-02T00:28:30.082Z,10.20
2023-11-02T00:31:03.210Z,10.20
2023-11-02T00:33:35.616Z,10.10
2023-11-02T00:36:10.138Z,10.20
2023-11-02T00:38:42.692Z,10.10
2023-11-02T00:41:15.178Z,10.20
2023-11-02T00:46:22.749Z,10.20
2023-11-02T00:48:56.033Z,10.10
2023-11-02T00:51:32.392Z,10.20
2023-11-02T00:54:08.709Z,10.10
2023-11-02T00:56:40.936Z,10.10
2023-11-02T00:59:19.949Z,10.10
2023-11-02T01:01:52.476Z,10.20
2023-11-02T01:04:55.673Z,10.50
2023-11-02T01:07:30.493Z,10.60
2023-11-02T01:10:06.279Z,10.80
2023-11-02T01:12:39.425Z,11.30
2023-11-02T01:15:45.854Z,11.20
2023-11-02T01:18:18.201Z,11.50
2023-11-02T01:21:08.261Z,11.40
2023-11-02T01:23:40.768Z,11.30
2023-11-02T01:26:59.357Z,11.40
2023-11-02T01:29:32.986Z,11.30
2023-11-02T01:32:06.070Z,11.40
2023-11-02T01:34:39.178Z,11.40
2023-11-02T01:37:13.720Z,11.50
2023-11-02T01:42:32.231Z,12.00
2023-11-02T01:45:14.817Z,12.00
2023-11-02T01:48:06.517Z,11.80
2023-11-02T01:50:58.358Z,12.80
2023-11-02T01:54:02.756Z,12.80
2023-11-02T01:56:55.858Z,12.60
2023-11-02T01:59:52.006Z,12.40
2023-11-02T02:03:12.798Z,12.90
2023-11-02T02:05:55.366Z,13.40
2023-11-02T02:08:55.004Z,14.10
2023-11-02T02:11:38.473Z,13.70
2023-11-02T02:14:41.382Z,15.50
2023-11-02T02:17:53.196Z,15.50
2023-11-02T02:20:32.565Z,15.40
2023-11-02T02:23:38.950Z,15.40
2023-11-02T02:26:44.171Z,15.00
2023-11-02T02:29:38.630Z,15.00
2023-11-02T02:32:57.805Z,14.90
2023-11-02T02:35:42.624Z,14.80
2023-11-02T02:38:20.281Z,14.70
2023-11-02T02:41:06.809Z,14.50
2023-11-02T02:43:41.645Z,14.50
2023-11-02T02:46:18.061Z,14.50
2023-11-02T02:48:50.520Z,14.40
2023-11-02T02:51:25.926Z,14.10
2023-11-02T02:54:09.732Z,14.30
2023-11-02T02:56:43.660Z,14.50
2023-11-02T02:59:20.203Z,14.00
2023-11-02T03:01:56.019Z,14.00
2023-11-02T03:09:40.361Z,13.00
2023-11-02T03:12:20.622Z,12.70
2023-11-02T03:14:56.452Z,12.60
2023-11-02T03:18:04.571Z,12.50
2023-11-02T03:20:37.477Z,12.40
2023-11-02T03:23:50.197Z,12.40
2023-11-02T03:26:55.474Z,12.30
2023-11-02T03:30:05.032Z,12.30
2023-11-02T03:33:05.254Z,12.30
2023-11-02T03:35:45.143Z,12.40
2023-11-02T03:38:39.500Z,12.50
2023-11-02T03:42:01.502Z,12.60
2023-11-02T03:45:10.194Z,12.70
2023-11-02T03:48:33.477Z,12.80
2023-11-02T03:51:38.423Z,12.90
2023-11-02T03:54:39.100Z,13.00
2023-11-02T03:57:50.787Z,13.20
2023-11-02T04:00:24.023Z,13.20
2023-11-02T04:03:04.732Z,13.30
2023-11-02T04:05:45.497Z,13.30
2023-11-02T04:08:23.032Z,13.30
2023-11-02T04:11:30.836Z,13.30
2023-11-02T04:14:18.462Z,13.10
2023-11-02T04:16:51.747Z,12.70
2023-11-02T04:19:23.794Z,12.60
2023-11-02T04:24:29.390Z,12.80
2023-11-02T04:27:02.609Z,12.90
2023-11-02T04:29:35.784Z,12.80
2023-11-02T04:34:41.680Z,12.90
2023-11-02T04:37:18.649Z,13.20
2023-11-02T04:42:23.893Z,13.70
2023-11-02T04:50:02.303Z,13.70
2023-11-02T04:52:38.271Z,13.80
2023-11-02T04:55:10.745Z,13.60
2023-11-02T04:57:43.689Z,13.70
2023-11-02T05:00:16.931Z,13.70
2023-11-02T05:02:49.806Z,13.60
2023-11-02T05:05:21.772Z,13.40
2023-11-02T05:07:54.589Z,13.30
2023-11-02T05:10:26.539Z,12.90
2023-11-02T05:12:58.975Z,12.60
2023-11-02T05:18:05.162Z,12.50
2023-11-02T05:20:38.573Z,12.00
2023-11-02T05:23:13.458Z,12.10
2023-11-02T05:25:45.818Z,12.20
2023-11-02T05:28:17.769Z,12.00
2023-11-02T05:30:50.652Z,12.10
2023-11-02T05:33:22.938Z,11.90
2023-11-02T05:35:55.836Z,11.70
2023-11-02T05:38:27.757Z,11.60
2023-11-02T05:41:00.629Z,11.70
2023-11-02T05:43:33.053Z,11.70
2023-11-02T05:46:05.379Z,11.70
2023-11-02T05:51:10.879Z,11.50
2023-11-02T05:53:43.826Z,11.50
2023-11-02T05:56:18.904Z,11.50
2023-11-02T05:58:54.825Z,11.50
2023-11-02T06:01:28.015Z,11.40
2023-11-02T06:04:04.159Z,11.40
2023-11-02T06:06:36.835Z,11.40
2023-11-02T06:11:42.736Z,11.40
2023-11-02T06:14:15.987Z,11.30
2023-11-02T06:16:47.970Z,11.20
2023-11-02T06:21:55.528Z,11.20
2023-11-02T06:29:37.051Z,11.30
2023-11-02T06:32:09.339Z,11.20
2023-11-02T06:34:42.295Z,11.20
2023-11-02T06:39:52.978Z,11.50
2023-11-02T06:47:36.651Z,11.20
2023-11-02T06:50:09.345Z,11.40
2023-11-02T06:52:43.447Z,11.20
2023-11-02T06:58:10.325Z,11.40
2023-11-02T07:00:45.219Z,11.30
2023-11-02T07:03:17.394Z,11.50
2023-11-02T07:05:52.785Z,11.70
2023-11-02T07:08:25.601Z,12.00
2023-11-02T07:16:04.196Z,11.90
2023-11-02T07:18:37.361Z,12.00
2023-11-02T07:21:10.929Z,11.90
2023-11-02T07:26:18.354Z,12.80
2023-11-02T07:36:31.893Z,13.50
2023-11-02T07:44:33.450Z,13.90
2023-11-02T07:49:41.759Z,13.90
2023-11-02T07:52:14.225Z,13.90
2023-11-02T08:00:13.980Z,13.60
2023-11-02T08:10:51.526Z,13.60
2023-11-02T08:13:24.227Z,13.50
2023-11-02T08:18:33.675Z,13.40
2023-11-02T08:21:09.342Z,13.20
2023-11-02T08:23:44.586Z,13.10
2023-11-02T08:26:16.832Z,13.10
2023-11-02T08:28:54.674Z,13.10
2023-11-02T08:31:29.880Z,13.10
2023-11-02T08:36:36.491Z,12.80
2023-11-02T08:41:42.322Z,12.90
2023-11-02T08:44:18.417Z,12.90
2023-11-02T08:46:52.621Z,12.80
2023-11-02T08:49:26.006Z,12.70
2023-11-02T08:54:54.454Z,12.60
2023-11-02T08:57:29.538Z,12.60
2023-11-02T09:00:02.744Z,12.50
2023-11-02T09:05:09.968Z,12.40
2023-11-02T09:10:17.977Z,12.30
2023-11-02T09:12:50.396Z,14.40
2023-11-02T09:15:24.881Z,12.30
2023-11-02T09:17:57.341Z,12.20
2023-11-02T09:23:46.656Z,12.20
2023-11-02T09:26:20.994Z,12.30
2023-11-02T09:31:30.981Z,12.30
2023-11-02T09:36:40.631Z,12.30
2023-11-02T09:54:45.926Z,12.40
2023-11-02T09:57:23.462Z,12.40
2023-11-02T09:59:56.474Z,12.50
2023-11-02T10:02:29.941Z,12.70
2023-11-02T10:05:06.836Z,12.80
2023-11-02T10:07:39.893Z,12.80
2023-11-02T10:10:15.335Z,12.90
2023-11-02T10:12:47.814Z,13.00
2023-11-02T10:15:22.157Z,13.00
2023-11-02T10:17:54.230Z,13.30
2023-11-02T10:20:27.775Z,13.40
2023-11-02T10:23:14.905Z,13.40
2023-11-02T10:28:21.003Z,13.60
2023-11-02T10:30:58.805Z,13.60
2023-11-02T10:33:34.375Z,13.50
2023-11-02T10:36:09.916Z,13.50
2023-11-02T10:38:47.195Z,13.40
2023-11-02T10:41:20.189Z,13.30
2023-11-02T10:43:58.649Z,13.20
2023-11-02T10:46:31.737Z,13.20
2023-11-02T10:52:09.712Z,13.20
2023-11-02T10:55:04.910Z,13.40
2023-11-02T10:57:40.027Z,13.30
2023-11-02T11:03:11.567Z,13.30
2023-11-02T11:05:44.703Z,13.30
2023-11-02T11:10:52.183Z,13.20
2023-11-02T11:13:26.557Z,13.10
2023-11-02T11:16:00.790Z,13.00
2023-11-02T11:18:34.506Z,13.10
2023-11-02T11:21:08.286Z,12.90
2023-11-02T11:26:18.712Z,12.80
2023-11-02T11:31:53.163Z,12.60
2023-11-02T11:37:41.300Z,12.60
2023-11-02T11:40:25.329Z,12.30
2023-11-02T11:45:48.356Z,12.10
2023-11-02T11:48:33.296Z,12.00
2023-11-02T11:51:43.154Z,12.10
2023-11-02T11:59:52.643Z,12.20
2023-11-02T12:02:41.958Z,12.30
2023-11-02T12:05:15.447Z,12.30
2023-11-02T12:10:23.890Z,12.40
2023-11-02T12:18:04.420Z,12.30
2023-11-02T12:20:38.723Z,12.20
2023-11-02T12:25:52.661Z,12.60
2023-11-02T12:28:25.271Z,12.50
2023-11-02T12:33:30.404Z,13.00
2023-11-02T12:36:02.936Z,13.00
2023-11-02T12:38:45.421Z,12.90
2023-11-02T12:41:32.055Z,13.00
2023-11-02T12:44:17.650Z,13.10
2023-11-02T12:46:54.001Z,13.20
2023-11-02T12:49:28.652Z,13.10
2023-11-02T12:52:09.161Z,13.20
2023-11-02T12:54:58.320Z,13.20
2023-11-02T13:00:05.825Z,13.10
2023-11-02T13:02:37.824Z,13.20
2023-11-02T13:05:11.168Z,13.20
2023-11-02T13:07:44.623Z,13.30
2023-11-02T13:15:24.979Z,13.20
2023-11-02T13:17:57.137Z,13.30
2023-11-02T13:20:29.990Z,13.30
2023-11-02T13:23:03.267Z,13.30
2023-11-02T13:25:36.345Z,13.40
2023-11-02T13:35:48.536Z,13.20
2023-11-02T13:46:03.317Z,13.30
2023-11-02T13:48:35.895Z,13.30
2023-11-02T13:53:42.443Z,13.30
2023-11-02T13:58:48.473Z,13.30
2023-11-02T14:19:16.535Z,13.40
2023-11-02T14:29:28.535Z,13.40
2023-11-02T14:32:01.134Z,13.30
2023-11-02T14:37:06.165Z,13.30
2023-11-02T14:39:38.282Z,13.30
2023-11-02T14:47:17.687Z,13.30
2023-11-02T14:49:49.849Z,13.40
2023-11-02T14:52:22.432Z,13.30
2023-11-02T14:54:58.746Z,13.30
2023-11-02T15:00:13.729Z,13.30
2023-11-02T15:03:30.214Z,13.30
2023-11-02T15:08:38.422Z,13.40
2023-11-02T15:31:44.838Z,13.40
2023-11-02T15:41:55.702Z,13.50
2023-11-02T15:47:00.990Z,13.30
2023-11-02T15:49:34.316Z,13.40
2023-11-02T15:52:06.424Z,13.30
2023-11-02T15:54:42.165Z,13.30
2023-11-02T15:57:17.392Z,13.20
2023-11-02T16:04:56.331Z,13.30
2023-11-02T16:12:38.924Z,13.20
2023-11-02T16:15:13.186Z,13.20
2023-11-02T16:20:21.187Z,13.20
2023-11-02T16:25:28.928Z,13.20
2023-11-02T16:28:00.989Z,13.20
2023-11-02T16:30:35.864Z,13.20
2023-11-02T16:35:41.811Z,13.10
2023-11-02T16:38:14.152Z,13.20
2023-11-02T16:40:47.413Z,13.10
2023-11-02T16:43:19.539Z,13.00
2023-11-02T16:45:52.269Z,13.00
2023-11-02T16:48:24.944Z,13.10
2023-11-02T16:53:32.263Z,13.20
2023-11-02T17:01:10.942Z,13.20
2023-11-02T17:03:42.888Z,13.20
2023-11-02T17:06:15.503Z,13.10
2023-11-02T17:08:47.602Z,13.00
2023-11-02T17:13:53.303Z,12.70
2023-11-02T17:18:59.926Z,12.30
2023-11-02T17:21:32.805Z,12.10
2023-11-02T17:24:05.536Z,11.80
2023-11-02T17:26:39.201Z,11.60
2023-11-02T17:31:44.214Z,11.40
2023-11-02T17:39:22.551Z,11.10
2023-11-02T17:49:32.957Z,10.70
2023-11-02T17:52:06.117Z,10.60
2023-11-02T17:54:38.485Z,10.60
2023-11-02T17:59:43.446Z,10.50
2023-11-02T18:07:22.545Z,10.60
2023-11-02T18:12:28.413Z,10.60
2023-11-02T18:17:34.557Z,10.60
2023-11-02T18:20:08.528Z,10.60
2023-11-02T18:22:41.198Z,10.60
2023-11-02T18:25:15.656Z,10.60
2023-11-02T18:30:21.317Z,10.60
2023-11-02T18:32:53.942Z,10.50
2023-11-02T18:35:26.751Z,10.50
2023-11-02T18:37:59.316Z,10.50
2023-11-02T18:40:31.828Z,10.50
2023-11-02T18:48:14.869Z,10.40
2023-11-02T18:50:47.922Z,10.40
2023-11-02T18:53:20.518Z,10.40
2023-11-02T19:08:40.725Z,10.30
2023-11-02T19:11:12.930Z,10.20
2023-11-02T19:21:28.899Z,10.20
2023-11-02T19:24:02.832Z,10.20
2023-11-02T19:29:12.704Z,10.20
2023-11-02T19:31:52.360Z,10.20
2023-11-02T19:34:26.086Z,10.20
2023-11-02T19:37:04.621Z,10.20
2023-11-02T19:39:37.820Z,10.20
2023-11-02T19:42:09.829Z,10.20
2023-11-02T19:44:46.974Z,10.30
2023-11-02T19:54:57.641Z,10.30
2023-11-02T20:02:57.380Z,10.20
2023-11-02T20:05:29.378Z,10.20
2023-11-02T20:15:40.882Z,10.30
2023-11-02T20:18:14.639Z,10.20
2023-11-02T20:23:21.569Z,9.40
2023-11-02T20:25:56.772Z,10.10
2023-11-02T20:31:02.677Z,10.20
2023-11-02T20:38:41.652Z,10.10
2023-11-02T20:41:14.437Z,10.20
2023-11-02T20:43:46.694Z,10.10
2023-11-02T20:46:20.375Z,10.00
2023-11-02T21:01:45.411Z,10.10
2023-11-02T21:06:58.268Z,9.90
2023-11-02T21:09:37.546Z,9.90
2023-11-02T21:14:45.598Z,10.00
2023-11-02T21:17:17.567Z,10.00
2023-11-02T21:22:23.346Z,9.90
2023-11-02T21:24:56.675Z,9.90
2023-11-02T21:32:36.703Z,9.90
2023-11-02T21:35:09.760Z,9.80
2023-11-02T21:37:42.392Z,9.80
2023-11-02T21:42:48.163Z,9.90
2023-11-02T21:47:53.828Z,9.90
2023-11-02T21:52:59.555Z,9.90
2023-11-02T21:55:32.726Z,10.00
2023-11-02T22:00:38.535Z,10.00
2023-11-02T22:03:11.845Z,10.10
2023-11-02T22:05:44.042Z,10.10
2023-11-02T22:08:18.131Z,10.00
2023-11-02T22:13:23.785Z,10.20
2023-11-02T22:15:56.081Z,10.20
2023-11-02T22:18:29.441Z,10.20
2023-11-02T22:21:01.935Z,10.20
2023-11-02T22:23:33.880Z,10.30
2023-11-02T22:26:09.174Z,10.30
2023-11-02T22:28:41.121Z,10.30
2023-11-02T22:31:14.232Z,10.40
2023-11-02T22:36:20.664Z,10.40
2023-11-02T22:38:53.208Z,10.40
2023-11-02T22:41:27.653Z,10.40
2023-11-02T22:43:59.643Z,10.40
2023-11-02T22:46:54.455Z,10.40
2023-11-02T22:49:27.076Z,10.40
2023-11-02T22:51:59.101Z,10.40
2023-11-02T22:57:07.860Z,10.30
2023-11-02T22:59:41.226Z,10.30
2023-11-02T23:02:13.267Z,10.30
2023-11-02T23:04:46.369Z,10.20
2023-11-02T23:07:18.446Z,10.20
2023-11-02T23:20:07.797Z,10.10
2023-11-02T23:25:14.155Z,10.00
2023-11-02T23:27:48.064Z,10.10
2023-11-02T23:30:21.948Z,10.00
2023-11-02T23:32:55.444Z,9.90
2023-11-02T23:35:27.414Z,9.90
2023-11-02T23:40:33.224Z,9.80
2023-11-02T23:45:39.963Z,9.80
2023-11-02T23:48:13.248Z,9.80
2023-11-02T23:50:45.675Z,9.80
2023-11-02T23:53:40.199Z,9.80
2023-11-02T23:56:12.183Z,9.80
2023-11-02T23:58:45.065Z,9.80
